Time;durP1;ratioP1;P1;durP2;ratioP2;P2;SDS_P1;SDS_P2;PMS_P1;PMS_P2;Temp;Humidity;BMP_temperature;BMP_pressure;BME280_temperature;BME280_humidity;BME280_pressure;Samples;Min_cycle;Max_cycle;Signal;HPM_P1;HPM_P2
2022/12/08 00:02:13;;;;;;;11.82;8.43;;;5.60;99.90;;;;;;4985130;28;20058;-86
2022/12/08 00:10:08;;;;;;;12.85;8.07;;;5.60;99.90;;;;;;5027947;28;20065;-92
2022/12/08 00:12:34;;;;;;;15.27;8.38;;;5.60;99.90;;;;;;5000869;28;20065;-86
2022/12/08 00:14:59;;;;;;;13.30;8.82;;;5.70;99.90;;;;;;4998260;28;20018;-86
2022/12/08 00:17:25;;;;;;;14.95;7.75;;;5.60;99.90;;;;;;5021455;28;20466;-87
2022/12/08 00:19:51;;;;;;;14.02;7.90;;;5.60;99.90;;;;;;4981193;28;20052;-86
2022/12/08 00:22:16;;;;;;;12.95;7.20;;;5.60;99.90;;;;;;4997120;28;20550;-87
2022/12/08 00:24:44;;;;;;;14.90;7.47;;;5.60;99.90;;;;;;4997351;28;20048;-86
2022/12/08 00:27:12;;;;;;;11.60;6.75;;;5.60;99.90;;;;;;4997234;28;20040;-87
2022/12/08 00:29:38;;;;;;;12.48;7.22;;;5.60;99.90;;;;;;4997051;28;20065;-86
2022/12/08 00:32:05;;;;;;;9.90;7.00;;;5.50;99.90;;;;;;5014789;28;20031;-86
2022/12/08 00:34:32;;;;;;;11.40;6.80;;;5.50;99.90;;;;;;4965189;28;20182;-85
2022/12/08 00:36:57;;;;;;;13.23;6.95;;;5.50;99.90;;;;;;4997431;28;20093;-86
2022/12/08 00:39:23;;;;;;;10.68;7.13;;;5.50;99.90;;;;;;4980913;28;20124;-86
2022/12/08 00:44:33;;;;;;;13.77;7.53;;;5.50;99.90;;;;;;4999649;28;20539;-86
2022/12/08 00:46:58;;;;;;;10.98;6.88;;;5.50;99.90;;;;;;4997011;28;20026;-86
2022/12/08 00:49:24;;;;;;;14.82;7.68;;;5.60;99.90;;;;;;4964637;28;20042;-86
2022/12/08 00:51:50;;;;;;;12.18;7.40;;;5.60;99.90;;;;;;4999838;28;20034;-86
2022/12/08 00:54:16;;;;;;;10.80;6.55;;;5.60;99.90;;;;;;5000722;28;20026;-86
2022/12/08 00:56:45;;;;;;;10.68;7.03;;;5.60;99.90;;;;;;5001209;28;20033;-85
2022/12/08 00:59:11;;;;;;;11.65;6.28;;;5.60;99.90;;;;;;4984830;28;20077;-86
2022/12/08 01:01:36;;;;;;;11.52;7.30;;;5.60;99.90;;;;;;4984495;28;20128;-86
2022/12/08 01:04:09;;;;;;;10.18;6.35;;;5.50;99.90;;;;;;4984567;28;20541;-86
2022/12/08 01:06:35;;;;;;;10.68;6.47;;;5.50;99.90;;;;;;5000872;28;20022;-85
2022/12/08 01:09:02;;;;;;;9.57;6.20;;;5.60;99.90;;;;;;5017868;28;20034;-87
2022/12/08 01:11:28;;;;;;;11.30;6.53;;;5.50;99.90;;;;;;4983974;28;20061;-86
2022/12/08 01:13:53;;;;;;;10.77;6.05;;;5.60;99.90;;;;;;5000890;28;20053;-86
2022/12/08 01:16:31;;;;;;;10.60;6.40;;;5.50;99.90;;;;;;5000348;28;20026;-86
2022/12/08 01:18:58;;;;;;;11.30;6.25;;;5.50;99.90;;;;;;5000600;28;20022;-87
2022/12/08 01:21:34;;;;;;;11.35;6.05;;;5.50;99.90;;;;;;5000649;28;20366;-86
2022/12/08 01:24:03;;;;;;;13.43;7.03;;;5.50;99.90;;;;;;5000434;28;20028;-87
2022/12/08 01:26:33;;;;;;;12.05;6.97;;;5.60;99.90;;;;;;5017641;28;20028;-87
2022/12/08 01:29:06;;;;;;;12.30;7.45;;;5.50;99.90;;;;;;5017078;28;20049;-89
2022/12/08 01:31:45;;;;;;;;;;;;;;;;;;;;;
2022/12/08 01:34:13;;;;;;;17.00;9.77;;;5.60;99.90;;;;;;5017908;28;20026;-87
2022/12/08 01:36:43;;;;;;;16.02;8.93;;;5.60;99.90;;;;;;5000191;28;20080;-87
2022/12/08 01:39:28;;;;;;;15.25;9.20;;;5.60;99.90;;;;;;5000464;28;20034;-87
2022/12/08 01:41:57;;;;;;;15.45;10.00;;;5.60;99.90;;;;;;5000448;28;20057;-88
2022/12/08 01:44:31;;;;;;;19.02;11.52;;;5.60;99.90;;;;;;5000725;28;20018;-88
2022/12/08 01:47:02;;;;;;;19.73;12.85;;;5.60;99.90;;;;;;5018659;28;20049;-88
2022/12/08 01:49:37;;;;;;;16.75;11.88;;;5.60;99.90;;;;;;4984730;28;20088;-87
2022/12/08 01:52:38;;;;;;;21.23;12.95;;;5.60;99.90;;;;;;5000345;28;20481;-88
2022/12/08 01:55:21;;;;;;;17.25;11.82;;;5.60;99.90;;;;;;4999549;28;20026;-87
2022/12/08 01:58:08;;;;;;;20.58;12.65;;;5.60;99.90;;;;;;5017402;28;20029;-88
2022/12/08 02:00:36;;;;;;;18.80;12.60;;;5.60;99.90;;;;;;5000309;28;20045;-88
2022/12/08 02:03:36;;;;;;;20.20;12.40;;;5.60;99.90;;;;;;5000156;28;20018;-87
2022/12/08 02:06:08;;;;;;;18.67;12.60;;;5.60;99.90;;;;;;5000268;28;20026;-88
2022/12/08 02:08:57;;;;;;;;;;;;;;;;;;;;;
2022/12/08 02:11:33;;;;;;;;;;;;;;;;;;;;;
2022/12/08 02:14:14;;;;;;;16.55;12.05;;;5.60;99.90;;;;;;5017404;28;20493;-88
2022/12/08 02:17:04;;;;;;;18.50;13.10;;;5.60;99.90;;;;;;5000622;28;20022;-88
2022/12/08 02:19:56;;;;;;;17.85;11.75;;;5.60;99.90;;;;;;5018439;28;20026;-88
2022/12/08 02:22:38;;;;;;;16.55;11.98;;;5.60;99.90;;;;;;5018336;28;20018;-92
2022/12/08 02:25:10;;;;;;;18.52;11.02;;;5.60;99.90;;;;;;5019141;28;20026;-88
2022/12/08 02:27:44;;;;;;;18.90;12.35;;;5.60;99.90;;;;;;5016511;28;20033;-88
2022/12/08 02:30:42;;;;;;;19.75;11.95;;;5.60;99.90;;;;;;5000153;28;20125;-89
2022/12/08 02:33:58;;;;;;;17.73;11.85;;;5.60;99.90;;;;;;5000315;28;20029;-89
2022/12/08 02:36:47;;;;;;;14.32;10.85;;;5.60;99.90;;;;;;4974614;28;20125;-89
2022/12/08 02:39:44;;;;;;;17.50;11.38;;;5.70;99.90;;;;;;5016191;28;20026;-89
2022/12/08 02:42:31;;;;;;;17.13;10.50;;;5.70;99.90;;;;;;4986483;28;20033;-89
2022/12/08 02:45:07;;;;;;;17.23;10.88;;;5.60;99.90;;;;;;5002533;28;20029;-89
2022/12/08 02:47:43;;;;;;;17.88;10.20;;;5.60;99.90;;;;;;5008428;28;20027;-90
2022/12/08 02:50:13;;;;;;;15.23;9.82;;;5.60;99.90;;;;;;5038591;28;20048;-89
2022/12/08 02:52:48;;;;;;;14.15;9.05;;;5.60;99.90;;;;;;5037349;28;20029;-90
2022/12/08 02:55:38;;;;;;;13.63;9.25;;;5.60;99.90;;;;;;5007278;28;20026;-90
2022/12/08 02:58:36;;;;;;;13.10;8.00;;;5.60;99.90;;;;;;5016524;28;20041;-89
2022/12/08 03:01:19;;;;;;;11.65;7.93;;;5.60;99.90;;;;;;5017569;28;20038;-90
2022/12/08 03:07:14;;;;;;;11.05;7.63;;;5.60;99.90;;;;;;5017146;28;20045;-90
2022/12/08 03:10:09;;;;;;;15.98;8.63;;;5.60;99.90;;;;;;4998884;28;20045;-89
2022/12/08 03:13:24;;;;;;;13.10;8.18;;;5.60;99.90;;;;;;4999061;28;20030;-89
2022/12/08 03:16:10;;;;;;;14.73;8.68;;;5.60;99.90;;;;;;5016024;28;20030;-89
2022/12/08 03:19:03;;;;;;;18.30;9.38;;;5.60;99.90;;;;;;5015072;28;20026;-89
2022/12/08 03:21:36;;;;;;;12.57;8.70;;;5.60;99.90;;;;;;4998715;28;20044;-92
2022/12/08 03:24:06;;;;;;;13.77;8.57;;;5.60;99.90;;;;;;4999167;28;20101;-89
2022/12/08 03:27:01;;;;;;;12.27;8.43;;;5.60;99.90;;;;;;4999393;28;20114;-90
2022/12/08 03:29:53;;;;;;;16.52;8.43;;;5.60;99.90;;;;;;4992861;28;20076;-90
2022/12/08 03:32:28;;;;;;;12.95;8.50;;;5.60;99.90;;;;;;4998885;28;20072;-90
2022/12/08 03:35:20;;;;;;;14.90;9.65;;;5.60;99.90;;;;;;5015083;28;20061;-89
2022/12/08 03:38:12;;;;;;;12.88;8.32;;;5.60;99.90;;;;;;4998521;28;20026;-89
2022/12/08 03:43:58;;;;;;;14.00;8.80;;;5.60;99.90;;;;;;5016421;28;20394;-90
2022/12/08 03:46:40;;;;;;;;;;;;;;;;;;;;;
2022/12/08 03:49:42;;;;;;;;;;;;;;;;;;;;;
2022/12/08 03:52:18;;;;;;;12.50;7.85;;;5.60;99.90;;;;;;5012252;28;20044;-90
2022/12/08 03:55:09;;;;;;;13.45;8.43;;;5.60;99.90;;;;;;4983125;28;20053;-90
2022/12/08 03:58:12;;;;;;;11.07;6.35;;;5.50;99.90;;;;;;5001687;28;20080;-91
2022/12/08 04:00:48;;;;;;;;;;;;;;;;;;;;;
2022/12/08 04:03:27;;;;;;;;;;;;;;;;;;;;;
2022/12/08 04:06:03;;;;;;;10.27;5.72;;;5.50;99.90;;;;;;5000247;28;20494;-90
2022/12/08 04:08:32;;;;;;;8.60;5.38;;;5.60;99.90;;;;;;4998500;28;20044;-90
2022/12/08 04:11:10;;;;;;;;;;;;;;;;;;;;;
2022/12/08 04:13:42;;;;;;;7.13;4.40;;;5.50;99.90;;;;;;5015739;28;20040;-90
2022/12/08 04:16:34;;;;;;;;;;;;;;;;;;;;;
2022/12/08 04:19:07;;;;;;;9.95;4.13;;;5.50;99.90;;;;;;5015837;28;20028;-91
2022/12/08 04:22:03;;;;;;;;;;;;;;;;;;;;;
2022/12/08 04:24:36;;;;;;;7.78;3.83;;;5.50;99.90;;;;;;5023245;28;20104;-91
2022/12/08 04:27:05;;;;;;;5.72;3.20;;;5.50;99.90;;;;;;4998445;28;20018;-91
2022/12/08 04:29:54;;;;;;;7.45;4.05;;;5.50;99.90;;;;;;4999534;28;20030;-91
2022/12/08 04:35:37;;;;;;;6.70;3.70;;;5.50;99.90;;;;;;4980202;28;20069;-91
2022/12/08 04:38:05;;;;;;;5.47;3.53;;;5.50;99.90;;;;;;5003114;28;20049;-91
2022/12/08 04:40:58;;;;;;;;;;;;;;;;;;;;;
2022/12/08 04:43:27;;;;;;;5.40;4.05;;;5.50;99.90;;;;;;5009156;28;20086;-91
2022/12/08 04:45:59;;;;;;;7.32;3.80;;;5.50;99.90;;;;;;5001096;28;20018;-90
2022/12/08 04:48:35;;;;;;;5.90;3.47;;;5.50;99.90;;;;;;4998918;28;20022;-90
2022/12/08 04:51:33;;;;;;;;;;;;;;;;;;;;;
2022/12/08 04:54:27;;;;;;;7.20;3.92;;;5.50;99.90;;;;;;5015302;28;20037;-90
2022/12/08 04:57:10;;;;;;;;;;;;;;;;;;;;;
2022/12/08 05:00:05;;;;;;;6.68;4.50;;;5.50;99.90;;;;;;4999493;28;20054;-90
2022/12/08 05:02:36;;;;;;;6.88;4.57;;;5.50;99.90;;;;;;4997843;28;20045;-91
2022/12/08 05:05:14;;;;;;;8.57;4.60;;;5.40;99.90;;;;;;4997951;28;20022;-90
2022/12/08 05:07:50;;;;;;;6.95;4.65;;;5.40;99.90;;;;;;4982929;28;20030;-90
2022/12/08 05:10:27;;;;;;;7.25;4.35;;;5.40;99.90;;;;;;4987430;28;20040;-91
2022/12/08 05:13:32;;;;;;;;;;;;;;;;;;;;;
2022/12/08 05:16:37;;;;;;;6.80;4.53;;;5.40;99.90;;;;;;5034456;28;20052;-91
2022/12/08 05:19:43;;;;;;;8.25;4.68;;;5.40;99.90;;;;;;5004995;28;20046;-90
2022/12/08 05:22:27;;;;;;;7.18;4.38;;;5.40;99.90;;;;;;5015298;28;20032;-90
2022/12/08 05:25:06;;;;;;;9.60;5.30;;;5.40;99.90;;;;;;4997365;28;20022;-91
2022/12/08 05:31:05;;;;;;;8.00;5.15;;;5.40;99.90;;;;;;5005163;28;20053;-93
2022/12/08 05:34:07;;;;;;;;;;;;;;;;;;;;;
2022/12/08 05:36:35;;;;;;;9.30;5.38;;;5.50;99.90;;;;;;5012844;28;20508;-91
2022/12/08 05:39:03;;;;;;;9.65;4.57;;;5.50;99.90;;;;;;5017729;28;20068;-90
2022/12/08 05:41:46;;;;;;;;;;;;;;;;;;;;;
2022/12/08 05:44:21;;;;;;;6.68;4.07;;;5.50;99.90;;;;;;5015103;28;20116;-88
2022/12/08 05:47:05;;;;;;;;;;;;;;;;;;;;;
2022/12/08 05:49:31;;;;;;;6.55;3.22;;;5.40;99.90;;;;;;5015343;28;20050;-90
2022/12/08 05:52:15;;;;;;;10.82;4.78;;;5.50;99.90;;;;;;5016523;28;20068;-90
2022/12/08 05:54:58;;;;;;;;;;;;;;;;;;;;;
2022/12/08 05:57:37;;;;;;;4.07;1.90;;;5.40;99.90;;;;;;5017802;28;20048;-88
2022/12/08 06:00:25;;;;;;;;;;;;;;;;;;;;;
2022/12/08 06:03:23;;;;;;;2.90;1.33;;;5.40;99.90;;;;;;5017384;28;20034;-89
2022/12/08 06:06:27;;;;;;;4.85;1.20;;;5.40;99.90;;;;;;5003098;28;20054;-89
2022/12/08 06:09:16;;;;;;;3.22;1.20;;;5.40;99.90;;;;;;5015140;28;20034;-88
2022/12/08 06:12:20;;;;;;;5.05;1.00;;;5.40;99.90;;;;;;5006305;28;20501;-88
2022/12/08 06:14:48;;;;;;;3.13;1.25;;;5.40;99.90;;;;;;5015969;28;20466;-86
2022/12/08 06:17:57;;;;;;;5.68;1.08;;;5.30;99.90;;;;;;5015755;28;20049;-88
2022/12/08 06:20:25;;;;;;;3.45;1.48;;;5.40;99.90;;;;;;5019374;28;20066;-87
2022/12/08 06:23:12;;;;;;;2.38;1.30;;;5.30;99.90;;;;;;5015437;28;20041;-90
2022/12/08 06:25:43;;;;;;;3.78;1.20;;;5.30;99.90;;;;;;5000091;28;20041;-88
2022/12/08 06:28:32;;;;;;;4.72;1.05;;;5.30;99.90;;;;;;5000286;28;20502;-88
2022/12/08 06:31:00;;;;;;;4.30;1.30;;;5.30;99.90;;;;;;5016383;28;20058;-89
2022/12/08 06:33:31;;;;;;;2.70;1.10;;;5.30;99.90;;;;;;5016704;28;20022;-89
2022/12/08 06:36:08;;;;;;;;;;;5.30;99.90;;;;;;5000299;28;20030;-88
2022/12/08 06:42:42;;;;;;;;;;;5.30;99.90;;;;;;4996777;28;20030;-89
2022/12/08 06:44:37;;;;;;;5.82;1.60;;;5.30;99.90;;;;;;5018491;28;19956;-89
2022/12/08 06:47:57;;;;;;;;;;;;;;;;;;;;;
2022/12/08 06:50:38;;;;;;;4.93;1.65;;;5.30;99.90;;;;;;4945196;29;20041;-89
2022/12/08 06:53:26;;;;;;;2.90;1.45;;;5.30;99.90;;;;;;5012791;28;20022;-89
2022/12/08 06:59:24;;;;;;;;;;;;;;;;;;;;;
2022/12/08 07:02:14;;;;;;;3.30;1.77;;;5.20;99.90;;;;;;5018116;28;20109;-89
2022/12/08 07:04:41;;;;;;;5.47;1.60;;;5.20;99.90;;;;;;4996395;28;20035;-88
2022/12/08 07:07:20;;;;;;;4.05;1.58;;;5.20;99.90;;;;;;4979537;28;20381;-88
2022/12/08 07:10:27;;;;;;;;;;;;;;;;;;;;;
2022/12/08 07:12:52;;;;;;;4.22;1.95;;;5.20;99.90;;;;;;4993322;28;20051;-88
2022/12/08 07:15:38;;;;;;;4.75;1.73;;;5.20;99.90;;;;;;4979766;28;20445;-88
2022/12/08 07:18:22;;;;;;;;;;;;;;;;;;;;;
2022/12/08 07:20:50;;;;;;;10.52;2.90;;;5.20;99.90;;;;;;4997268;28;20048;-88
2022/12/08 07:23:26;;;;;;;4.63;1.75;;;5.20;99.90;;;;;;4997751;28;20455;-89
2022/12/08 07:26:08;;;;;;;4.45;2.15;;;5.20;99.90;;;;;;4981069;28;20501;-88
2022/12/08 07:28:35;;;;;;;3.83;2.15;;;5.20;99.90;;;;;;4980883;28;20027;-88
2022/12/08 07:31:13;;;;;;;9.15;2.33;;;5.20;99.90;;;;;;4998927;28;20502;-88
2022/12/08 07:33:58;;;;;;;5.53;2.30;;;5.20;99.90;;;;;;4999647;28;20033;-88
2022/12/08 07:36:36;;;;;;;9.02;2.55;;;5.20;99.90;;;;;;5000046;28;20022;-89
2022/12/08 07:39:02;;;;;;;7.43;2.58;;;5.20;99.90;;;;;;5016976;28;20038;-88
2022/12/08 07:41:40;;;;;;;4.75;2.22;;;5.20;99.90;;;;;;4999904;28;20018;-87
2022/12/08 07:44:07;;;;;;;3.20;1.88;;;5.20;99.90;;;;;;4984229;28;20129;-87
2022/12/08 07:46:56;;;;;;;2.83;1.70;;;5.20;99.90;;;;;;5028309;28;20086;-90
2022/12/08 07:49:22;;;;;;;3.83;2.42;;;5.10;99.90;;;;;;5021134;28;20037;-87
2022/12/08 07:51:58;;;;;;;6.00;1.70;;;5.10;99.90;;;;;;5013220;28;20068;-89
2022/12/08 07:54:24;;;;;;;4.18;1.55;;;5.00;99.90;;;;;;4983170;28;20061;-89
2022/12/08 07:56:52;;;;;;;5.75;2.10;;;5.00;99.90;;;;;;4998563;28;20481;-88
2022/12/08 07:59:44;;;;;;;4.70;2.05;;;5.00;99.90;;;;;;4978069;28;20564;-87
2022/12/08 08:02:17;;;;;;;1.75;1.23;;;5.00;99.90;;;;;;4994899;28;20090;-87
2022/12/08 08:05:08;;;;;;;3.65;1.20;;;5.00;99.90;;;;;;4994483;28;20455;-88
2022/12/08 08:07:36;;;;;;;2.90;1.08;;;5.00;99.90;;;;;;4996004;28;20498;-88
2022/12/08 08:10:31;;;;;;;;;;;;;;;;;;;;;
2022/12/08 08:13:10;;;;;;;;;;;;;;;;;;;;;
2022/12/08 08:15:46;;;;;;;2.70;1.40;;;4.90;99.90;;;;;;4995107;28;20026;-88
2022/12/08 08:18:19;;;;;;;4.35;1.70;;;4.90;99.90;;;;;;4980032;28;20034;-88
2022/12/08 08:20:52;;;;;;;5.40;1.77;;;5.00;99.90;;;;;;4985344;28;20123;-86
2022/12/08 08:23:28;;;;;;;3.17;1.27;;;4.90;99.90;;;;;;4986050;28;20030;-87
2022/12/08 08:26:08;;;;;;;2.33;1.05;;;5.00;99.90;;;;;;5003273;28;20030;-87
2022/12/08 08:28:52;;;;;;;;;;;;;;;;;;;;;
2022/12/08 08:31:26;;;;;;;2.58;1.08;;;5.00;99.90;;;;;;5012446;28;20054;-87
2022/12/08 08:34:04;;;;;;;3.33;1.70;;;5.00;99.90;;;;;;5010911;28;20466;-88
2022/12/08 08:36:40;;;;;;;1.75;0.80;;;5.00;99.90;;;;;;5009591;28;20125;-88
2022/12/08 08:39:28;;;;;;;1.67;0.77;;;5.00;99.90;;;;;;5005320;28;20057;-92
2022/12/08 08:42:07;;;;;;;;;;;;;;;;;;;;;
2022/12/08 08:44:48;;;;;;;3.13;1.23;;;4.90;99.90;;;;;;4996350;28;20030;-88
2022/12/08 08:50:23;;;;;;;2.42;1.50;;;4.90;99.90;;;;;;4995443;28;20042;-88
2022/12/08 08:52:53;;;;;;;3.80;1.50;;;4.90;99.90;;;;;;5015532;28;20021;-89
2022/12/08 08:55:45;;;;;;;4.07;1.83;;;4.80;99.90;;;;;;4998285;28;20073;-89
2022/12/08 08:58:13;;;;;;;;;;;4.80;99.90;;;;;;4995985;28;20035;-89
2022/12/08 09:00:59;;;;;;;;;;;;;;;;;;;;;
2022/12/08 09:04:03;;;;;;;3.80;1.40;;;4.80;99.90;;;;;;4997922;28;20089;-89
2022/12/08 09:06:44;;;;;;;;;;;;;;;;;;;;;
2022/12/08 09:09:39;;;;;;;4.07;1.90;;;4.90;99.90;;;;;;4997078;28;20040;-88
2022/12/08 09:12:10;;;;;;;5.38;2.30;;;4.90;99.90;;;;;;5012781;28;20073;-88
2022/12/08 09:14:46;;;;;;;;;;;4.90;99.90;;;;;;4998625;28;20069;-88
2022/12/08 09:17:29;;;;;;;3.90;2.35;;;4.90;99.90;;;;;;4998370;28;20350;-89
2022/12/08 09:19:55;;;;;;;4.10;2.70;;;4.90;99.90;;;;;;4999622;28;20062;-88
2022/12/08 09:22:23;;;;;;;5.35;2.90;;;4.90;99.90;;;;;;4998074;28;20495;-88
2022/12/08 09:25:02;;;;;;;6.90;3.33;;;4.90;99.90;;;;;;4982250;28;20030;-88
2022/12/08 09:27:42;;;;;;;6.55;3.45;;;4.90;99.90;;;;;;4998001;28;20049;-88
2022/12/08 09:30:08;;;;;;;4.70;3.20;;;4.90;99.90;;;;;;4985479;28;20034;-87
2022/12/08 09:32:39;;;;;;;5.57;2.90;;;4.90;99.90;;;;;;4997087;28;20099;-87
2022/12/08 09:35:07;;;;;;;4.97;3.10;;;4.90;99.90;;;;;;4981195;28;20088;-87
2022/12/08 09:37:36;;;;;;;6.07;2.70;;;4.90;99.90;;;;;;4996971;28;20041;-87
2022/12/08 09:40:05;;;;;;;5.32;3.03;;;4.90;99.90;;;;;;5013797;28;20034;-87
2022/12/08 09:42:52;;;;;;;4.70;2.97;;;4.90;99.90;;;;;;4997179;28;20022;-87
2022/12/08 09:45:22;;;;;;;5.05;2.80;;;4.90;99.90;;;;;;4997400;28;20063;-89
2022/12/08 09:48:19;;;;;;;6.25;2.55;;;4.90;99.90;;;;;;4997238;28;20101;-87
2022/12/08 09:50:54;;;;;;;4.68;2.58;;;5.00;99.90;;;;;;5013391;28;20038;-88
2022/12/08 09:53:41;;;;;;;3.83;2.30;;;4.90;99.90;;;;;;5012892;28;20177;-88
2022/12/08 09:56:17;;;;;;;4.22;2.10;;;5.00;99.90;;;;;;4996710;28;20030;-87
2022/12/08 09:59:14;;;;;;;3.28;1.67;;;5.00;99.90;;;;;;4997082;28;20026;-87
2022/12/08 10:01:51;;;;;;;;;;;;;;;;;;;;;
2022/12/08 10:04:30;;;;;;;3.95;1.70;;;5.00;99.90;;;;;;5018284;28;20040;-87
2022/12/08 10:07:30;;;;;;;4.22;1.83;;;5.00;99.90;;;;;;5016977;28;20108;-87
2022/12/08 10:10:33;;;;;;;4.68;1.85;;;5.00;99.90;;;;;;5020329;28;20054;-89
2022/12/08 10:13:18;;;;;;;2.75;1.55;;;5.00;99.90;;;;;;4988245;28;20049;-87
2022/12/08 10:16:15;;;;;;;3.17;1.90;;;5.00;99.90;;;;;;5025313;28;20014;-90
2022/12/08 10:18:58;;;;;;;3.90;2.00;;;5.00;99.90;;;;;;5018375;28;20030;-89
2022/12/08 10:21:31;;;;;;;3.45;1.80;;;5.00;99.90;;;;;;5000539;28;20026;-91
2022/12/08 10:24:09;;;;;;;2.13;1.35;;;5.00;99.90;;;;;;5017141;28;20054;-88
2022/12/08 10:26:48;;;;;;;;;;;;;;;;;;;;;
2022/12/08 10:29:49;;;;;;;;;;;;;;;;;;;;;
2022/12/08 10:32:22;;;;;;;;;;;5.10;99.90;;;;;;4996653;28;20040;-86
2022/12/08 10:35:42;;;;;;;4.68;1.67;;;5.10;99.90;;;;;;4980428;28;19928;-87
2022/12/08 10:38:38;;;;;;;2.60;1.50;;;5.10;99.90;;;;;;4986466;28;20120;-87
2022/12/08 10:41:06;;;;;;;5.50;2.40;;;5.10;99.90;;;;;;4979687;28;20032;-87
2022/12/08 10:43:41;;;;;;;4.78;2.20;;;5.00;99.90;;;;;;4995625;28;20034;-87
2022/12/08 10:46:31;;;;;;;;;;;;;;;;;;;;;
2022/12/08 10:49:03;;;;;;;3.70;2.47;;;5.00;99.90;;;;;;4997216;28;20036;-87
2022/12/08 10:51:38;;;;;;;6.05;2.70;;;5.00;99.90;;;;;;4995556;28;20085;-87
2022/12/08 10:54:37;;;;;;;4.38;2.47;;;5.00;99.90;;;;;;4979437;28;20094;-87
2022/12/08 10:57:21;;;;;;;4.10;2.60;;;5.00;99.90;;;;;;4979644;28;20026;-86
2022/12/08 10:59:49;;;;;;;5.30;2.50;;;5.00;99.90;;;;;;4978299;28;20046;-87
2022/12/08 11:02:21;;;;;;;5.50;2.72;;;5.00;99.90;;;;;;4979997;28;20022;-87
2022/12/08 11:05:02;;;;;;;4.53;2.88;;;5.00;99.90;;;;;;4988411;28;20466;-87
2022/12/08 11:07:31;;;;;;;10.18;6.60;;;5.00;99.90;;;;;;5019143;28;20022;-94
2022/12/08 11:10:02;;;;;;;6.57;3.30;;;5.00;99.90;;;;;;4999408;28;20041;-93
2022/12/08 11:12:29;;;;;;;5.78;3.17;;;5.00;99.90;;;;;;5014899;28;20030;-87
2022/12/08 11:15:09;;;;;;;6.93;3.38;;;5.10;99.90;;;;;;5016292;28;20029;-88
2022/12/08 11:18:08;;;;;;;;;;;;;;;;;;;;;
2022/12/08 11:20:45;;;;;;;6.00;3.53;;;5.10;99.90;;;;;;5010486;28;20474;-89
2022/12/08 11:23:49;;;;;;;7.38;3.97;;;5.10;99.90;;;;;;5000386;28;20472;-89
2022/12/08 11:26:34;;;;;;;6.55;4.47;;;5.10;99.90;;;;;;4979964;28;20050;-89
2022/12/08 11:29:00;;;;;;;8.60;4.85;;;5.20;99.90;;;;;;5007622;28;20030;-89
2022/12/08 11:31:45;;;;;;;9.48;5.53;;;5.20;99.90;;;;;;4982144;28;20038;-89
2022/12/08 11:34:28;;;;;;;7.43;4.53;;;5.20;99.90;;;;;;4989042;28;20029;-89
2022/12/08 11:37:07;;;;;;;7.22;4.80;;;5.20;99.90;;;;;;4987138;28;20034;-89
2022/12/08 11:39:51;;;;;;;8.23;5.15;;;5.20;99.90;;;;;;4978700;28;20132;-89
2022/12/08 11:42:30;;;;;;;10.75;5.97;;;5.20;99.90;;;;;;5010601;28;20117;-89
2022/12/08 11:48:35;;;;;;;7.13;5.10;;;5.30;99.90;;;;;;5007069;28;20066;-89
2022/12/08 11:51:26;;;;;;;8.85;5.25;;;5.30;99.90;;;;;;4999236;28;20037;-89
2022/12/08 11:54:10;;;;;;;7.45;5.05;;;5.30;99.90;;;;;;4998867;28;20481;-88
2022/12/08 11:56:45;;;;;;;7.00;4.93;;;5.40;99.90;;;;;;4998252;28;20466;-86
2022/12/08 11:59:38;;;;;;;6.50;4.43;;;5.40;99.90;;;;;;4997882;28;20054;-89
2022/12/08 12:02:41;;;;;;;6.70;4.15;;;5.40;99.90;;;;;;5000930;28;20046;-88
2022/12/08 12:05:28;;;;;;;6.30;4.28;;;5.40;99.90;;;;;;4991818;28;20486;-89
2022/12/08 12:08:02;;;;;;;6.68;3.97;;;5.40;99.90;;;;;;5015689;28;20159;-89
2022/12/08 12:11:17;;;;;;;5.93;4.25;;;5.30;99.90;;;;;;5015040;28;20037;-88
2022/12/08 12:14:24;;;;;;;7.43;4.25;;;5.40;99.90;;;;;;5000918;28;20042;-88
2022/12/08 12:17:29;;;;;;;7.38;4.53;;;5.40;99.90;;;;;;4994825;28;20037;-89
2022/12/08 12:20:02;;;;;;;5.60;3.70;;;5.40;99.90;;;;;;5000003;28;20474;-88
2022/12/08 12:22:42;;;;;;;7.70;3.42;;;5.40;99.90;;;;;;4998850;28;20025;-88
2022/12/08 12:25:51;;;;;;;4.55;2.55;;;5.40;99.90;;;;;;4998120;28;20026;-88
2022/12/08 12:28:55;;;;;;;8.02;2.63;;;5.40;99.90;;;;;;4992441;28;20042;-88
2022/12/08 12:31:35;;;;;;;4.75;2.50;;;5.40;99.90;;;;;;5006634;28;20129;-88
2022/12/08 12:34:59;;;;;;;7.07;2.55;;;5.40;99.90;;;;;;5015351;28;20029;-88
2022/12/08 12:37:46;;;;;;;;;;;;;;;;;;;;;
2022/12/08 12:40:30;;;;;;;4.38;1.83;;;5.30;99.90;;;;;;4960526;28;20035;-88
2022/12/08 12:43:06;;;;;;;4.65;2.20;;;5.30;99.90;;;;;;5005563;28;20034;-88
2022/12/08 12:45:42;;;;;;;2.53;1.90;;;5.40;99.90;;;;;;5013984;28;20030;-88
2022/12/08 12:48:39;;;;;;;5.28;1.90;;;5.40;99.90;;;;;;4980558;28;20037;-88
2022/12/08 12:51:07;;;;;;;5.10;2.13;;;5.40;99.90;;;;;;5011054;28;20042;-89
2022/12/08 12:53:48;;;;;;;;;;;;;;;;;;;;;
2022/12/08 12:56:55;;;;;;;2.80;1.40;;;5.40;99.90;;;;;;5037657;28;20018;-92
2022/12/08 12:59:41;;;;;;;4.65;1.25;;;5.30;99.90;;;;;;5013886;28;20152;-88
2022/12/08 13:02:33;;;;;;;3.78;0.98;;;5.30;99.90;;;;;;4999104;28;20466;-88
2022/12/08 13:05:29;;;;;;;2.42;0.80;;;5.30;99.90;;;;;;4997326;28;20036;-87
2022/12/08 13:08:13;;;;;;;;;;;;;;;;;;;;;
2022/12/08 13:11:06;;;;;;;1.58;0.60;;;5.20;99.90;;;;;;5014962;28;20040;-90
2022/12/08 13:14:05;;;;;;;2.55;0.65;;;5.20;99.90;;;;;;5001142;28;20030;-87
2022/12/08 13:16:40;;;;;;;3.00;1.60;;;5.10;99.90;;;;;;5012346;28;20022;-87
2022/12/08 13:19:13;;;;;;;4.03;1.40;;;5.10;99.90;;;;;;5007684;28;20089;-88
2022/12/08 13:21:40;;;;;;;5.63;2.45;;;5.10;99.90;;;;;;5004676;28;20041;-88
2022/12/08 13:24:45;;;;;;;5.72;3.13;;;5.10;99.90;;;;;;5004114;28;20022;-87
2022/12/08 13:27:13;;;;;;;18.52;11.52;;;5.00;99.90;;;;;;4993281;28;20034;-87
2022/12/08 13:29:42;;;;;;;14.80;9.10;;;5.00;99.90;;;;;;5014486;28;20040;-87
2022/12/08 13:32:10;;;;;;;28.10;15.18;;;5.00;99.90;;;;;;4997554;28;20030;-87
2022/12/08 13:34:52;;;;;;;16.48;8.68;;;5.00;99.90;;;;;;5014131;28;20030;-88
2022/12/08 13:37:41;;;;;;;7.97;4.00;;;4.90;99.90;;;;;;4997493;28;20030;-87
2022/12/08 13:40:16;;;;;;;7.82;4.57;;;4.90;99.90;;;;;;4997866;28;20037;-87
2022/12/08 13:42:47;;;;;;;6.45;3.00;;;4.90;99.90;;;;;;5012628;28;20041;-88
2022/12/08 13:45:26;;;;;;;10.35;6.82;;;4.90;99.90;;;;;;4996663;28;20025;-87
2022/12/08 13:48:39;;;;;;;5.05;2.72;;;4.90;99.90;;;;;;4997169;28;20030;-88
2022/12/08 13:51:20;;;;;;;3.05;1.90;;;4.90;99.90;;;;;;5006775;28;20038;-87
2022/12/08 13:54:19;;;;;;;13.17;6.37;;;5.00;99.90;;;;;;4996488;28;20124;-89
2022/12/08 13:57:09;;;;;;;5.93;3.13;;;5.00;99.90;;;;;;4973690;28;20080;-90
2022/12/08 13:59:35;;;;;;;8.65;4.70;;;5.00;99.90;;;;;;4990825;28;20096;-87
2022/12/08 14:02:47;;;;;;;4.72;2.22;;;5.10;99.90;;;;;;5012491;28;20491;-87
2022/12/08 14:05:13;;;;;;;7.97;4.30;;;5.10;99.90;;;;;;4996938;28;20049;-87
2022/12/08 14:07:45;;;;;;;6.18;2.78;;;5.10;99.90;;;;;;4996739;28;20022;-87
2022/12/08 14:10:48;;;;;;;6.70;3.20;;;5.10;99.90;;;;;;4996855;28;20457;-87
2022/12/08 14:13:29;;;;;;;3.40;2.00;;;5.10;99.90;;;;;;4997037;28;20031;-87
2022/12/08 14:16:03;;;;;;;3.28;1.80;;;5.20;99.90;;;;;;4996957;28;20026;-88
2022/12/08 14:18:32;;;;;;;2.63;1.60;;;5.10;99.90;;;;;;4996487;28;20026;-87
2022/12/08 14:21:11;;;;;;;2.83;1.75;;;5.20;99.90;;;;;;4996338;28;20034;-87
2022/12/08 14:23:43;;;;;;;3.47;2.17;;;5.10;99.90;;;;;;4997449;28;20026;-87
2022/12/08 14:26:19;;;;;;;3.92;2.28;;;5.20;99.90;;;;;;4996520;28;20034;-87
2022/12/08 14:29:05;;;;;;;4.88;2.00;;;5.20;99.90;;;;;;4981293;28;20030;-87
2022/12/08 14:31:34;;;;;;;4.80;2.17;;;5.20;99.90;;;;;;4982422;28;20537;-87
2022/12/08 14:34:03;;;;;;;3.40;2.10;;;5.20;99.90;;;;;;4995989;28;20061;-87
2022/12/08 14:36:32;;;;;;;5.20;2.20;;;5.20;99.90;;;;;;4995927;28;20022;-87
2022/12/08 14:38:58;;;;;;;4.18;1.95;;;5.20;99.90;;;;;;4995954;28;20026;-87
2022/12/08 14:41:33;;;;;;;4.10;2.25;;;5.20;99.90;;;;;;4996437;28;20117;-87
2022/12/08 14:44:00;;;;;;;5.05;3.38;;;5.20;99.90;;;;;;4995888;28;20022;-87
2022/12/08 14:46:34;;;;;;;3.83;2.25;;;5.20;99.90;;;;;;4996050;28;20101;-87
2022/12/08 14:49:03;;;;;;;5.68;2.72;;;5.20;99.90;;;;;;4995981;28;20092;-87
2022/12/08 14:51:35;;;;;;;3.33;2.65;;;5.20;99.90;;;;;;4995809;28;20101;-88
2022/12/08 14:54:23;;;;;;;;;;;;;;;;;;;;;
2022/12/08 14:56:59;;;;;;;4.95;3.00;;;5.20;99.90;;;;;;4996897;28;20022;-87
2022/12/08 15:00:01;;;;;;;;;;;;;;;;;;;;;
2022/12/08 15:02:57;;;;;;;4.32;2.63;;;5.30;99.90;;;;;;5014079;28;20045;-88
2022/12/08 15:05:43;;;;;;;;;;;;;;;;;;;;;
2022/12/08 15:08:22;;;;;;;;;;;;;;;;;;;;;
2022/12/08 15:11:26;;;;;;;7.18;3.85;;;5.30;99.90;;;;;;5014030;28;20040;-86
2022/12/08 15:16:53;;;;;;;4.70;3.10;;;5.20;99.90;;;;;;5004354;28;20398;-86
2022/12/08 15:19:40;;;;;;;8.13;3.88;;;5.20;99.90;;;;;;4997716;28;20091;-86
2022/12/08 15:22:31;;;;;;;8.60;5.15;;;5.10;99.90;;;;;;4998812;28;20030;-87
2022/12/08 15:25:12;;;;;;;;;;;;;;;;;;;;;
2022/12/08 15:27:40;;;;;;;;;;;5.10;99.90;;;;;;5037115;28;20065;-87
2022/12/08 15:30:32;;;;;;;5.75;4.32;;;5.10;99.90;;;;;;5021259;28;19928;-88
2022/12/08 15:33:00;;;;;;;;;;;5.10;99.90;;;;;;5029947;28;20034;-86
2022/12/08 15:35:29;;;;;;;7.63;4.60;;;5.00;99.90;;;;;;4998371;28;19905;-86